createdAt,value
2024-02-19T00:00:57.698Z,27.30
2024-02-19T00:03:27.478Z,27.58
2024-02-19T00:05:57.839Z,27.90
2024-02-19T00:08:27.564Z,29.29
2024-02-19T00:10:57.311Z,30.90
2024-02-19T00:13:27.039Z,32.11
2024-02-19T00:15:57.142Z,33.39
2024-02-19T00:18:27.018Z,33.91
2024-02-19T00:20:56.729Z,34.59
2024-02-19T00:23:26.531Z,35.15
2024-02-19T00:25:56.362Z,35.54
2024-02-19T00:28:26.514Z,35.75
2024-02-19T00:30:57.158Z,36.02
2024-02-19T00:33:27.326Z,36.13
2024-02-19T00:35:57.045Z,36.48
2024-02-19T00:38:27.638Z,36.85
2024-02-19T00:40:57.285Z,37.02
2024-02-19T00:43:27.015Z,37.32
2024-02-19T00:45:56.695Z,37.47
2024-02-19T00:48:26.522Z,37.85
2024-02-19T00:50:56.218Z,37.73
2024-02-19T00:53:25.838Z,38.03
2024-02-19T00:55:56.295Z,38.08
2024-02-19T00:58:26.036Z,38.01
2024-02-19T01:00:58.147Z,38.28
2024-02-19T01:03:29.405Z,38.55
2024-02-19T01:05:59.177Z,38.52
2024-02-19T01:08:28.815Z,38.75
2024-02-19T01:10:58.657Z,38.64
2024-02-19T01:13:28.322Z,38.95
2024-02-19T01:15:58.041Z,38.84
2024-02-19T01:18:27.901Z,38.82
2024-02-19T01:20:58.256Z,38.85
2024-02-19T01:23:27.955Z,39.00
2024-02-19T01:25:58.367Z,39.08
2024-02-19T01:28:28.198Z,39.05
2024-02-19T01:30:58.565Z,39.39
2024-02-19T01:33:28.708Z,39.49
2024-02-19T01:35:58.613Z,39.38
2024-02-19T01:38:28.711Z,39.15
2024-02-19T01:40:58.395Z,36.32
2024-02-19T01:43:28.722Z,35.03
2024-02-19T01:45:58.480Z,34.54
2024-02-19T01:48:28.204Z,33.69
2024-02-19T01:50:57.932Z,32.77
2024-02-19T01:53:29.162Z,32.59
2024-02-19T01:55:58.882Z,32.89
2024-02-19T01:58:29.199Z,32.46
2024-02-19T02:01:01.702Z,32.32
2024-02-19T02:03:31.455Z,31.65
2024-02-19T02:06:02.597Z,31.76
2024-02-19T02:08:32.299Z,31.44
2024-02-19T02:11:02.083Z,31.24
2024-02-19T02:13:31.777Z,31.24
2024-02-19T02:16:03.088Z,31.29
2024-02-19T02:18:33.413Z,30.98
2024-02-19T02:21:03.191Z,31.00
2024-02-19T02:23:33.232Z,30.96
2024-02-19T02:26:02.968Z,30.46
2024-02-19T02:28:32.744Z,30.72
2024-02-19T02:31:02.481Z,30.94
2024-02-19T02:33:32.587Z,31.19
2024-02-19T02:36:02.632Z,31.45
2024-02-19T02:38:32.235Z,31.19
2024-02-19T02:41:05.569Z,31.47
2024-02-19T02:43:35.289Z,31.63
2024-02-19T02:46:05.178Z,31.70
2024-02-19T02:51:17.636Z,31.38
2024-02-19T02:53:47.348Z,31.92
2024-02-19T02:56:23.668Z,31.67
2024-02-19T02:58:54.164Z,31.95
2024-02-19T03:01:33.198Z,31.91
2024-02-19T03:04:03.015Z,32.20
2024-02-19T03:06:32.724Z,32.23
2024-02-19T03:09:02.352Z,31.66
2024-02-19T03:11:33.656Z,31.86
2024-02-19T03:14:03.625Z,32.13
2024-02-19T03:16:33.266Z,31.60
2024-02-19T03:19:03.018Z,31.65
2024-02-19T03:21:32.747Z,31.74
2024-02-19T03:24:02.401Z,32.10
2024-02-19T03:26:38.025Z,31.54
2024-02-19T03:29:15.959Z,31.99
2024-02-19T03:31:46.721Z,32.15
2024-02-19T03:34:16.454Z,32.10
2024-02-19T03:36:51.350Z,32.04
2024-02-19T03:39:21.891Z,31.93
2024-02-19T03:41:52.006Z,32.38
2024-02-19T03:44:21.641Z,31.98
2024-02-19T03:46:51.406Z,32.36
2024-02-19T03:49:21.196Z,32.71
2024-02-19T03:51:50.869Z,33.18
2024-02-19T03:54:21.324Z,33.41
2024-02-19T03:56:53.768Z,33.25
2024-02-19T03:59:25.196Z,33.33
2024-02-19T04:01:55.026Z,33.38
2024-02-19T04:04:25.075Z,34.00
2024-02-19T04:06:55.055Z,33.55
2024-02-19T04:09:24.979Z,34.58
2024-02-19T04:11:54.678Z,34.22
2024-02-19T04:14:24.328Z,34.10
2024-02-19T04:16:53.976Z,34.11
2024-02-19T04:19:23.652Z,34.56
2024-02-19T04:21:53.481Z,34.42
2024-02-19T04:24:23.264Z,34.62
2024-02-19T04:26:52.908Z,34.76
2024-02-19T04:29:23.025Z,34.49
2024-02-19T04:31:55.549Z,34.77
2024-02-19T04:34:25.347Z,34.75
2024-02-19T04:36:55.627Z,34.25
2024-02-19T04:39:25.414Z,33.74
2024-02-19T04:41:55.052Z,33.88
2024-02-19T04:44:33.719Z,33.49
2024-02-19T04:47:03.550Z,32.78
2024-02-19T04:49:34.265Z,32.95
2024-02-19T04:52:04.592Z,33.19
2024-02-19T04:54:34.775Z,32.65
2024-02-19T04:57:04.571Z,32.65
2024-02-19T04:59:34.268Z,32.12
2024-02-19T05:02:04.025Z,32.19
2024-02-19T05:04:33.825Z,32.38
2024-02-19T05:07:03.578Z,32.19
2024-02-19T05:09:33.619Z,32.07
2024-02-19T05:12:03.546Z,32.34
2024-02-19T05:14:33.176Z,32.10
2024-02-19T05:17:03.233Z,31.84
2024-02-19T05:19:33.030Z,31.60
2024-02-19T05:22:02.789Z,31.91
2024-02-19T05:24:32.455Z,31.73
2024-02-19T05:27:02.148Z,31.24
2024-02-19T05:29:32.174Z,31.18
2024-02-19T05:32:02.425Z,31.62
2024-02-19T05:34:32.572Z,31.68
2024-02-19T05:37:02.309Z,31.42
2024-02-19T05:39:32.098Z,31.45
2024-02-19T05:42:01.683Z,31.48
2024-02-19T05:44:32.306Z,31.14
2024-02-19T05:47:01.898Z,31.04
2024-02-19T05:49:31.688Z,30.95
2024-02-19T05:52:01.562Z,30.88
2024-02-19T05:54:31.377Z,31.29
2024-02-19T05:57:01.020Z,30.75
2024-02-19T05:59:30.635Z,31.12
2024-02-19T06:02:00.606Z,31.40
2024-02-19T06:04:30.762Z,30.90
2024-02-19T06:07:02.016Z,31.46
2024-02-19T06:09:31.824Z,33.11
2024-02-19T06:12:01.578Z,34.37
2024-02-19T06:14:31.314Z,34.97
2024-02-19T06:17:01.142Z,35.77
2024-02-19T06:19:30.823Z,36.06
2024-02-19T06:22:00.492Z,36.44
2024-02-19T06:24:30.215Z,36.84
2024-02-19T06:26:59.841Z,37.11
2024-02-19T06:29:29.496Z,36.89
2024-02-19T06:31:59.165Z,37.08
2024-02-19T06:34:29.481Z,37.33
2024-02-19T06:36:59.245Z,37.63
2024-02-19T06:39:28.894Z,37.41
2024-02-19T06:41:58.523Z,37.62
2024-02-19T06:44:28.161Z,37.93
2024-02-19T06:46:57.774Z,37.99
2024-02-19T06:49:27.513Z,38.29
2024-02-19T06:51:57.286Z,38.06
2024-02-19T06:54:29.404Z,38.43
2024-02-19T06:57:00.916Z,38.36
2024-02-19T06:59:32.789Z,38.23
2024-02-19T07:02:05.825Z,38.48
2024-02-19T07:04:39.833Z,38.26
2024-02-19T07:07:12.868Z,38.14
2024-02-19T07:09:45.865Z,38.20
2024-02-19T07:12:15.589Z,37.85
2024-02-19T07:14:45.170Z,38.22
2024-02-19T07:17:14.795Z,36.67
2024-02-19T07:19:44.524Z,35.17
2024-02-19T07:22:14.323Z,33.92
2024-02-19T07:24:44.122Z,32.41
2024-02-19T07:27:13.771Z,32.04
2024-02-19T07:29:43.476Z,31.93
2024-02-19T07:32:13.169Z,31.79
2024-02-19T07:34:44.480Z,32.19
2024-02-19T07:37:14.372Z,32.20
2024-02-19T07:39:44.515Z,31.41
2024-02-19T07:42:14.202Z,31.53
2024-02-19T07:44:46.639Z,31.96
2024-02-19T07:47:16.438Z,31.27
2024-02-19T07:49:46.094Z,30.95
2024-02-19T07:52:15.780Z,30.84
2024-02-19T07:54:45.530Z,30.77
2024-02-19T07:57:15.221Z,30.65
2024-02-19T07:59:44.858Z,30.61
2024-02-19T08:02:14.700Z,30.48
2024-02-19T08:04:44.529Z,30.73
2024-02-19T08:07:14.269Z,31.13
2024-02-19T08:09:44.016Z,32.86
2024-02-19T08:12:13.710Z,34.12
2024-02-19T08:14:43.395Z,34.61
2024-02-19T08:17:13.046Z,35.05
2024-02-19T08:19:42.694Z,35.29
2024-02-19T08:22:12.436Z,35.17
2024-02-19T08:24:42.104Z,35.28
2024-02-19T08:27:11.748Z,35.94
2024-02-19T08:29:41.413Z,36.52
2024-02-19T08:32:11.144Z,36.17
2024-02-19T08:34:40.787Z,36.21
2024-02-19T08:37:10.491Z,36.85
2024-02-19T08:39:42.540Z,36.58
2024-02-19T08:42:12.485Z,36.64
2024-02-19T08:44:42.142Z,36.68
2024-02-19T08:47:12.105Z,36.46
2024-02-19T08:49:41.997Z,36.56
2024-02-19T08:52:11.957Z,36.36
2024-02-19T08:54:41.834Z,36.50
2024-02-19T08:57:11.469Z,36.80
2024-02-19T08:59:47.336Z,36.61
2024-02-19T09:02:17.381Z,36.67
2024-02-19T09:04:47.845Z,36.44
2024-02-19T09:07:17.758Z,36.59
2024-02-19T09:09:47.576Z,36.34
2024-02-19T09:12:17.289Z,36.41
2024-02-19T09:14:46.957Z,36.07
2024-02-19T09:17:17.692Z,36.30
2024-02-19T09:19:48.084Z,36.48
2024-02-19T09:22:18.130Z,36.34
2024-02-19T09:24:50.286Z,36.22
2024-02-19T09:27:20.008Z,36.12
2024-02-19T09:29:49.613Z,36.12
2024-02-19T09:32:19.250Z,36.23
2024-02-19T09:34:49.068Z,36.09
2024-02-19T09:37:18.845Z,36.31
2024-02-19T09:39:52.456Z,36.06
2024-02-19T09:42:22.646Z,36.21
2024-02-19T09:44:52.223Z,36.28
2024-02-19T09:47:22.841Z,36.42
2024-02-19T09:49:52.814Z,36.28
2024-02-19T09:52:29.324Z,36.33
2024-02-19T09:55:00.263Z,36.43
2024-02-19T09:57:30.845Z,36.25
2024-02-19T10:00:05.755Z,36.47
2024-02-19T10:07:35.222Z,36.24
2024-02-19T10:10:07.025Z,36.26
2024-02-19T10:12:36.702Z,36.17
2024-02-19T10:15:07.478Z,36.18
2024-02-19T10:17:37.527Z,36.17
2024-02-19T10:20:10.889Z,36.33
2024-02-19T10:22:40.548Z,36.06
2024-02-19T10:25:10.498Z,36.15
2024-02-19T10:27:41.196Z,36.01
2024-02-19T10:30:15.535Z,35.95
2024-02-19T10:32:45.605Z,36.14
2024-02-19T10:35:15.360Z,35.97
2024-02-19T10:37:45.236Z,36.06
2024-02-19T10:40:20.126Z,35.85
2024-02-19T10:42:53.172Z,35.68
2024-02-19T10:45:26.122Z,35.81
2024-02-19T10:47:58.817Z,35.91
2024-02-19T10:50:34.436Z,35.78
2024-02-19T10:53:03.468Z,35.89
2024-02-19T10:55:42.214Z,35.80
2024-02-19T10:58:19.819Z,35.59
2024-02-19T11:00:49.524Z,35.87
2024-02-19T11:03:19.285Z,35.69
2024-02-19T11:05:49.457Z,35.65
2024-02-19T11:08:25.667Z,35.72
2024-02-19T11:10:57.933Z,35.74
2024-02-19T11:13:30.795Z,35.87
2024-02-19T11:16:02.871Z,35.83
2024-02-19T11:18:34.388Z,35.56
2024-02-19T11:21:07.830Z,35.63
2024-02-19T11:23:37.488Z,35.79
2024-02-19T11:26:08.081Z,35.63
2024-02-19T11:28:38.399Z,35.64
2024-02-19T11:31:08.526Z,35.64
2024-02-19T11:33:38.278Z,35.65
2024-02-19T11:36:08.117Z,35.65
2024-02-19T11:38:41.416Z,35.56
2024-02-19T11:41:14.272Z,35.63
2024-02-19T11:43:43.907Z,35.53
2024-02-19T11:46:14.715Z,35.63
2024-02-19T11:48:44.577Z,35.61
2024-02-19T11:51:14.273Z,35.71
2024-02-19T11:53:44.016Z,35.68
2024-02-19T11:56:13.712Z,35.62
2024-02-19T11:58:43.396Z,35.64
2024-02-19T12:01:13.307Z,35.71
2024-02-19T12:03:44.463Z,35.69
2024-02-19T12:06:14.117Z,35.60
2024-02-19T12:08:45.218Z,35.65
2024-02-19T12:11:15.096Z,35.50
2024-02-19T12:13:44.797Z,35.66
2024-02-19T12:16:14.507Z,35.45
2024-02-19T12:18:47.172Z,35.35
2024-02-19T12:21:17.612Z,35.43
2024-02-19T12:23:48.857Z,35.52
2024-02-19T12:26:18.527Z,35.52
2024-02-19T12:28:48.374Z,35.55
2024-02-19T12:31:18.779Z,35.44
2024-02-19T12:33:48.582Z,35.34
2024-02-19T12:36:18.338Z,35.43
2024-02-19T12:38:50.047Z,35.37
2024-02-19T12:41:19.969Z,35.47
2024-02-19T12:43:49.620Z,35.43
2024-02-19T12:46:19.313Z,35.23
2024-02-19T12:48:49.168Z,35.34
2024-02-19T12:51:18.933Z,35.17
2024-02-19T12:53:48.570Z,35.31
2024-02-19T12:56:18.285Z,35.37
2024-02-19T12:58:48.006Z,35.17
2024-02-19T13:01:24.458Z,35.10
2024-02-19T13:04:02.737Z,35.14
2024-02-19T13:06:32.887Z,35.40
2024-02-19T13:09:03.385Z,35.23
2024-02-19T13:11:33.077Z,35.11
2024-02-19T13:14:04.027Z,35.12
2024-02-19T13:16:34.104Z,35.15
2024-02-19T13:19:04.153Z,35.10
2024-02-19T13:21:33.942Z,35.28
2024-02-19T13:24:03.618Z,35.23
2024-02-19T13:26:33.420Z,35.13
2024-02-19T13:29:05.277Z,35.17
2024-02-19T13:31:35.130Z,35.02
2024-02-19T13:34:04.880Z,35.25
2024-02-19T13:36:34.612Z,35.10
2024-02-19T13:39:04.318Z,35.04
2024-02-19T13:41:33.973Z,34.88
2024-02-19T13:44:03.596Z,35.04
2024-02-19T13:46:35.973Z,35.08
2024-02-19T13:49:09.785Z,35.08
2024-02-19T13:51:39.543Z,34.99
2024-02-19T13:54:09.417Z,35.00
2024-02-19T13:56:39.077Z,34.95
2024-02-19T13:59:10.377Z,34.87
2024-02-19T14:01:42.494Z,34.82
2024-02-19T14:04:12.570Z,34.86
2024-02-19T14:06:42.456Z,34.90
2024-02-19T14:09:14.229Z,34.81
2024-02-19T14:11:44.164Z,34.83
2024-02-19T14:14:13.956Z,34.74
2024-02-19T14:16:43.622Z,34.72
2024-02-19T14:19:13.306Z,34.86
2024-02-19T14:21:42.963Z,34.80
2024-02-19T14:24:12.840Z,34.81
2024-02-19T14:26:42.456Z,34.80
2024-02-19T14:29:13.920Z,34.76
2024-02-19T14:31:43.598Z,34.76
2024-02-19T14:34:13.331Z,34.83
2024-02-19T14:36:43.237Z,34.85
2024-02-19T14:39:12.847Z,34.67
2024-02-19T14:41:42.462Z,34.67
2024-02-19T14:44:12.331Z,34.53
2024-02-19T14:46:51.091Z,34.53
2024-02-19T14:49:24.408Z,34.43
2024-02-19T14:51:54.238Z,34.59
2024-02-19T14:54:23.965Z,34.65
2024-02-19T14:56:56.369Z,34.53
2024-02-19T14:59:26.134Z,34.60
2024-02-19T15:01:55.980Z,34.57
2024-02-19T15:04:25.812Z,34.62
2024-02-19T15:06:57.737Z,34.56
2024-02-19T15:09:27.433Z,34.37
2024-02-19T15:11:57.000Z,34.29
2024-02-19T15:14:26.717Z,34.43
2024-02-19T15:16:56.332Z,34.36
2024-02-19T15:19:25.970Z,34.29
2024-02-19T15:21:55.721Z,34.20
2024-02-19T15:24:25.366Z,34.15
2024-02-19T15:26:55.151Z,34.01
2024-02-19T15:29:26.084Z,34.19
2024-02-19T15:31:56.143Z,34.15
2024-02-19T15:34:26.141Z,34.00
2024-02-19T15:36:56.033Z,33.96
2024-02-19T15:39:25.855Z,33.95
2024-02-19T15:41:56.082Z,33.88
2024-02-19T15:44:26.213Z,33.79
2024-02-19T15:46:56.000Z,33.74
2024-02-19T15:49:25.921Z,33.85
2024-02-19T15:51:55.681Z,33.78
2024-02-19T15:54:28.523Z,33.68
2024-02-19T15:56:58.126Z,33.67
2024-02-19T15:59:28.329Z,33.51
2024-02-19T16:02:00.685Z,33.64
2024-02-19T16:04:30.601Z,33.68
2024-02-19T16:07:00.541Z,33.47
2024-02-19T16:09:30.660Z,33.37
2024-02-19T16:12:00.485Z,33.54
2024-02-19T16:14:30.129Z,33.44
2024-02-19T16:16:59.816Z,33.41
2024-02-19T16:19:29.622Z,33.28
2024-02-19T16:21:59.453Z,33.33
2024-02-19T16:24:36.089Z,33.40
2024-02-19T16:27:08.752Z,33.49
2024-02-19T16:29:38.420Z,33.44
2024-02-19T16:32:08.251Z,33.31
2024-02-19T16:34:37.985Z,33.21
2024-02-19T16:37:07.845Z,33.21
2024-02-19T16:39:37.492Z,33.27
2024-02-19T16:42:09.142Z,33.15
2024-02-19T16:44:38.981Z,33.27
2024-02-19T16:47:08.606Z,33.32
2024-02-19T16:49:38.828Z,33.27
2024-02-19T16:52:08.830Z,33.25
2024-02-19T16:54:38.529Z,32.95
2024-02-19T16:57:08.205Z,33.24
2024-02-19T16:59:39.531Z,33.03
2024-02-19T17:02:09.233Z,33.08
2024-02-19T17:04:41.650Z,33.03
2024-02-19T17:07:11.492Z,33.15
2024-02-19T17:09:42.281Z,32.97
2024-02-19T17:12:11.886Z,32.91
2024-02-19T17:14:45.646Z,32.92
2024-02-19T17:17:15.365Z,33.04
2024-02-19T17:19:45.114Z,32.81
2024-02-19T17:22:14.796Z,32.81
2024-02-19T17:24:44.955Z,32.75
2024-02-19T17:27:14.606Z,32.81
2024-02-19T17:29:45.011Z,32.78
2024-02-19T17:32:18.133Z,32.89
2024-02-19T17:34:49.096Z,32.80
2024-02-19T17:37:19.885Z,32.83
2024-02-19T17:39:51.035Z,32.77
2024-02-19T17:42:21.988Z,32.65
2024-02-19T17:44:51.786Z,32.76
2024-02-19T17:47:21.424Z,32.54
2024-02-19T17:49:51.593Z,32.50
2024-02-19T17:52:21.328Z,32.67
2024-02-19T17:54:53.386Z,32.62
2024-02-19T17:57:23.002Z,32.66
2024-02-19T17:59:52.571Z,32.82
2024-02-19T18:02:25.201Z,32.64
2024-02-19T18:04:58.930Z,32.63
2024-02-19T18:07:29.932Z,32.44
2024-02-19T18:10:00.036Z,32.58
2024-02-19T18:12:29.721Z,32.43
2024-02-19T18:15:01.349Z,32.55
2024-02-19T18:17:31.423Z,32.55
2024-02-19T18:20:01.380Z,32.49
2024-02-19T18:22:32.618Z,32.37
2024-02-19T18:25:02.657Z,32.41
2024-02-19T18:27:32.330Z,32.22
2024-02-19T18:30:01.967Z,32.29
2024-02-19T18:32:31.539Z,32.34
2024-02-19T18:35:04.952Z,32.39
2024-02-19T18:37:34.991Z,32.16
2024-02-19T18:40:05.424Z,32.25
2024-02-19T18:42:35.511Z,32.37
2024-02-19T18:45:05.270Z,32.04
2024-02-19T18:47:34.904Z,32.31
2024-02-19T18:50:05.220Z,32.19
2024-02-19T18:52:34.921Z,32.02
2024-02-19T18:55:05.360Z,32.20
2024-02-19T18:57:35.069Z,32.17
2024-02-19T19:00:08.370Z,32.06
2024-02-19T19:02:41.235Z,31.95
2024-02-19T19:05:11.004Z,32.04
2024-02-19T19:07:40.758Z,32.07
2024-02-19T19:10:10.834Z,32.19
2024-02-19T19:12:40.521Z,31.93
2024-02-19T19:15:10.766Z,32.12
2024-02-19T19:17:40.540Z,31.93
2024-02-19T19:20:11.770Z,31.89
2024-02-19T19:22:41.616Z,31.93
2024-02-19T19:25:11.521Z,31.83
2024-02-19T19:27:41.301Z,32.08
2024-02-19T19:30:11.535Z,31.93
2024-02-19T19:32:41.975Z,31.86
2024-02-19T19:35:11.965Z,31.89
2024-02-19T19:37:41.744Z,31.94
2024-02-19T19:40:12.140Z,31.98
2024-02-19T19:42:46.244Z,31.87
2024-02-19T19:45:16.943Z,31.77
2024-02-19T19:47:46.652Z,31.79
2024-02-19T19:50:17.289Z,31.57
2024-02-19T19:52:47.016Z,31.75
2024-02-19T19:55:16.842Z,31.53
2024-02-19T19:57:53.301Z,31.79
2024-02-19T20:00:23.105Z,31.78
2024-02-19T20:02:52.936Z,31.67
2024-02-19T20:05:22.942Z,31.83
2024-02-19T20:07:52.731Z,31.68
2024-02-19T20:10:22.466Z,31.51
2024-02-19T20:12:52.359Z,31.57
2024-02-19T20:15:22.008Z,31.74
2024-02-19T20:17:51.683Z,31.63
2024-02-19T20:20:21.630Z,31.80
2024-02-19T20:22:51.288Z,31.68
2024-02-19T20:25:24.162Z,31.39
2024-02-19T20:27:54.215Z,31.35
2024-02-19T20:30:23.985Z,31.31
2024-02-19T20:32:54.334Z,31.61
2024-02-19T20:35:24.089Z,31.36
2024-02-19T20:37:53.697Z,31.37
2024-02-19T20:40:24.071Z,31.47
2024-02-19T20:43:01.005Z,31.48
2024-02-19T20:45:31.143Z,31.47
2024-02-19T20:48:00.953Z,31.23
2024-02-19T20:50:30.678Z,31.26
2024-02-19T20:53:00.592Z,31.34
2024-02-19T20:55:30.403Z,31.29
2024-02-19T20:58:00.135Z,31.52
2024-02-19T21:00:30.281Z,31.24
2024-02-19T21:02:59.978Z,31.31
2024-02-19T21:05:29.634Z,31.11
2024-02-19T21:07:59.466Z,31.40
2024-02-19T21:10:30.178Z,31.88
2024-02-19T21:13:01.220Z,30.57
2024-02-19T21:15:31.135Z,29.70
2024-02-19T21:18:08.922Z,28.54
2024-02-19T21:20:39.422Z,26.87
2024-02-19T21:23:09.188Z,26.28
2024-02-19T21:25:38.937Z,25.41
2024-02-19T21:28:10.443Z,24.76
2024-02-19T21:30:40.090Z,25.16
2024-02-19T21:33:09.771Z,25.88
2024-02-19T21:35:39.687Z,26.50
2024-02-19T21:38:09.328Z,26.48
2024-02-19T21:40:39.807Z,25.72
2024-02-19T21:43:10.194Z,25.18
2024-02-19T21:45:39.993Z,24.55
2024-02-19T21:48:10.285Z,24.30
2024-02-19T21:50:40.055Z,24.07
2024-02-19T21:53:09.637Z,24.28
2024-02-19T21:55:39.315Z,24.21
2024-02-19T21:58:09.082Z,24.11
2024-02-19T22:00:41.262Z,24.00
2024-02-19T22:03:10.966Z,24.55
2024-02-19T22:05:40.785Z,25.74
2024-02-19T22:08:10.578Z,26.37
2024-02-19T22:10:40.335Z,25.28
2024-02-19T22:13:10.428Z,24.82
2024-02-19T22:15:40.107Z,24.54
2024-02-19T22:18:09.880Z,24.36
2024-02-19T22:20:39.562Z,24.14
2024-02-19T22:23:09.515Z,24.30
2024-02-19T22:25:39.501Z,24.01
2024-02-19T22:28:09.629Z,23.87
2024-02-19T22:30:39.351Z,23.66
2024-02-19T22:33:09.015Z,23.67
2024-02-19T22:35:39.252Z,23.53
2024-02-19T22:38:09.098Z,23.30
2024-02-19T22:40:38.875Z,22.93
2024-02-19T22:43:12.084Z,23.37
2024-02-19T22:45:42.778Z,23.06
2024-02-19T22:48:12.644Z,23.14
2024-02-19T22:50:43.111Z,23.03
2024-02-19T22:53:13.951Z,23.15
2024-02-19T22:55:43.583Z,23.08
2024-02-19T22:58:20.130Z,22.76
2024-02-19T23:00:56.087Z,22.68
2024-02-19T23:03:25.768Z,23.36
2024-02-19T23:05:55.532Z,22.82
2024-02-19T23:08:25.178Z,23.45
2024-02-19T23:10:57.396Z,23.88
2024-02-19T23:13:27.173Z,24.84
2024-02-19T23:15:59.803Z,25.56
2024-02-19T23:18:29.617Z,25.02
2024-02-19T23:20:59.277Z,24.65
2024-02-19T23:23:29.365Z,24.26
2024-02-19T23:25:59.245Z,24.00
2024-02-19T23:28:29.164Z,23.75
2024-02-19T23:30:59.957Z,23.79
2024-02-19T23:33:29.883Z,23.36
2024-02-19T23:35:59.557Z,23.25
2024-02-19T23:38:29.360Z,23.34
2024-02-19T23:40:59.030Z,23.04
2024-02-19T23:43:29.183Z,22.89
2024-02-19T23:45:58.935Z,22.85
2024-02-19T23:48:28.862Z,22.97
2024-02-19T23:50:59.174Z,22.88
2024-02-19T23:53:29.861Z,22.89
2024-02-19T23:55:59.562Z,23.08
2024-02-19T23:58:29.287Z,23.05
